Meyers Chuck, Alaska
Current Conditions -  °F | °C
As of 11:24 AM on Monday 24 Nov 2014 (Local Time) from PAKW Reporting Station
Light Rain Light Rain  
Wind Chill: 39°   Ceiling: 3200
Heat Index: 42°   Visibility: 10mi
Dew Point: 40°   Wind: 5mph
Humidity: 92%   Direction: 180°S
Pressure: 29.85"   Gusts: NA
Location:  55.74°N, 132.26°W
Report Text: PAKW 242024Z AUTO 18004KT 10SM -RA BKN032 OVC048 06/04 A2985 RMK AO2 P0002 T00560044 TSNO
Loading
Personal Weather Stations






























Interactive Weather Map New forecast layout! Learn more

10-Day Weather Forecast

Advertisements
Track Severe Weather on mobile